createdAt,value
2018-05-01T00:02:43.252Z,12.34
2018-05-01T00:08:33.956Z,11.07
2018-05-01T00:14:24.585Z,16.35
2018-05-01T00:20:15.225Z,7.55
2018-05-01T00:26:05.946Z,9.99
2018-05-01T00:31:56.594Z,12.43
2018-05-01T00:37:47.263Z,12.36
2018-05-01T00:43:37.889Z,10.1
2018-05-01T00:49:28.514Z,6.04
2018-05-01T00:55:19.243Z,6.21
2018-05-01T01:01:09.854Z,5.93
2018-05-01T01:07:00.553Z,10.99
2018-05-01T01:12:51.199Z,6.11
2018-05-01T01:18:41.832Z,7.01
2018-05-01T01:24:32.454Z,5.51
2018-05-01T01:30:23.150Z,12.65
2018-05-01T01:36:13.811Z,7.86
2018-05-01T01:42:04.485Z,11.68
2018-05-01T01:47:55.103Z,7.61
2018-05-01T01:53:45.703Z,13.64
2018-05-01T01:59:36.389Z,18.24
2018-05-01T02:05:27.019Z,14.54
2018-05-01T02:11:17.725Z,10.52
2018-05-01T02:17:08.375Z,11.38
2018-05-01T02:22:58.988Z,12.45
2018-05-01T02:28:49.669Z,16.38
2018-05-01T02:34:40.353Z,9.24
2018-05-01T02:40:30.947Z,11.66
2018-05-01T02:46:21.592Z,13.92
2018-05-01T02:52:12.247Z,16.01
2018-05-01T02:58:02.926Z,9.88
2018-05-01T03:03:53.601Z,14.29
2018-05-01T03:09:44.372Z,16.75
2018-05-01T03:15:34.912Z,8.36
2018-05-01T03:21:25.552Z,12.5
2018-05-01T03:27:16.219Z,10.18
2018-05-01T03:33:06.876Z,11.27
2018-05-01T03:38:57.533Z,8.91
2018-05-01T03:44:48.166Z,10.76
2018-05-01T03:50:38.883Z,6.71
2018-05-01T03:56:29.509Z,10.29
2018-05-01T04:02:20.211Z,6.86
2018-05-01T04:08:10.811Z,8.54
2018-05-01T04:14:01.503Z,16.11
2018-05-01T04:19:52.164Z,14.11
2018-05-01T04:25:42.779Z,9.82
2018-05-01T04:31:33.472Z,8.13
2018-05-01T04:37:24.158Z,11.65
2018-05-01T04:43:14.789Z,9.53
2018-05-01T04:49:05.440Z,7.75
2018-05-01T04:54:56.126Z,7.67
2018-05-01T05:00:46.790Z,9.15
2018-05-01T05:06:37.471Z,8.28
2018-05-01T05:12:28.090Z,7.49
2018-05-01T05:18:18.738Z,10.88
2018-05-01T05:24:09.398Z,9.47
2018-05-01T05:30:00.073Z,9.91
2018-05-01T05:35:50.716Z,10.69
2018-05-01T05:41:41.382Z,12.51
2018-05-01T05:47:32.074Z,11.1
2018-05-01T05:53:22.738Z,8.64
2018-05-01T05:59:13.395Z,11.6
2018-05-01T06:05:04.049Z,8.45
2018-05-01T06:10:39.073Z,11.82
2018-05-01T06:16:34.134Z,13.99
2018-05-01T06:22:29.049Z,7.82
2018-05-01T06:28:24.043Z,13.01
2018-05-01T06:34:19.072Z,16.53
2018-05-01T06:40:14.077Z,12.8
2018-05-01T06:46:09.111Z,14.21
2018-05-01T06:52:04.107Z,16.49
2018-05-01T06:57:59.075Z,11.59
2018-05-01T07:03:54.070Z,12.78
2018-05-01T07:09:49.116Z,18.86
2018-05-01T07:15:44.190Z,25.84
2018-05-01T07:21:39.083Z,36.73
2018-05-01T07:27:34.191Z,27.36
2018-05-01T07:33:29.158Z,24.37
2018-05-01T07:39:24.091Z,27.89
2018-05-01T07:45:19.153Z,38.1
2018-05-01T07:51:14.105Z,24.09
2018-05-01T07:57:09.147Z,25.82
2018-05-01T08:03:04.105Z,38.73
2018-05-01T08:08:59.198Z,26.16
2018-05-01T08:14:54.109Z,19.8
2018-05-01T08:20:49.085Z,13.61
2018-05-01T08:26:44.141Z,18.22
2018-05-01T08:32:39.106Z,21.17
2018-05-01T08:38:34.116Z,13.24
2018-05-01T08:44:29.210Z,17.53
2018-05-01T08:50:24.153Z,23.34
2018-05-01T08:56:19.132Z,17.32
2018-05-01T09:02:14.184Z,21.07
2018-05-01T09:08:09.205Z,18.08
2018-05-01T09:14:04.148Z,14.87
2018-05-01T09:19:59.150Z,12.57
2018-05-01T09:25:54.142Z,12.76
2018-05-01T09:31:49.131Z,17.77
2018-05-01T09:37:44.163Z,19.85
2018-05-01T09:43:39.150Z,18.97
2018-05-01T09:49:34.191Z,18.96
2018-05-01T09:55:29.172Z,21.27
2018-05-01T10:01:24.155Z,24.31
2018-05-01T10:07:19.198Z,24.11
2018-05-01T10:13:14.204Z,21.47
2018-05-01T10:19:09.217Z,17.79
2018-05-01T10:25:04.174Z,17.17
2018-05-01T10:30:59.224Z,13.37
2018-05-01T10:36:54.197Z,11.52
2018-05-01T10:42:49.182Z,11.27
2018-05-01T10:48:44.206Z,8.86
2018-05-01T10:54:39.332Z,7.58
2018-05-01T11:00:34.251Z,7.27
2018-05-01T11:06:29.235Z,7.86
2018-05-01T11:12:24.219Z,10.89
2018-05-01T11:18:19.285Z,6.61
2018-05-01T11:24:14.254Z,9.11
2018-05-01T11:30:09.233Z,10.98
2018-05-01T11:36:04.221Z,13.91
2018-05-01T11:41:59.278Z,9.73
2018-05-01T11:47:54.241Z,11.03
2018-05-01T11:53:49.324Z,7.52
2018-05-01T11:59:44.245Z,11.06
2018-05-01T12:05:39.253Z,9.19
2018-05-01T12:11:34.256Z,7.94
2018-05-01T12:17:29.225Z,15.71
2018-05-01T12:23:24.258Z,7.53
2018-05-01T12:29:19.234Z,8.94
2018-05-01T12:35:14.269Z,15.92
2018-05-01T12:41:09.241Z,8.69
2018-05-01T12:47:04.243Z,7.18
2018-05-01T12:52:59.296Z,12.11
2018-05-01T12:58:54.274Z,7.4
2018-05-01T13:04:49.261Z,10.08
2018-05-01T13:10:44.296Z,11.74
2018-05-01T13:16:39.293Z,16.35
2018-05-01T13:22:34.273Z,13.4
2018-05-01T13:28:29.305Z,10.04
2018-05-01T13:34:24.289Z,5.71
2018-05-01T13:40:19.296Z,7.93
2018-05-01T13:46:14.332Z,11.77
2018-05-01T13:52:09.279Z,14.63
2018-05-01T13:58:04.297Z,11.61
2018-05-01T14:03:59.287Z,16.23
2018-05-01T14:09:54.318Z,10.77
2018-05-01T14:15:49.334Z,8.98
2018-05-01T14:21:44.334Z,13.64
2018-05-01T14:27:39.327Z,10.8
2018-05-01T14:33:34.375Z,14.87
2018-05-01T14:39:29.307Z,18.99
2018-05-01T14:45:24.356Z,15.98
2018-05-01T14:51:19.353Z,8.2
2018-05-01T14:57:14.341Z,11.5
2018-05-01T15:03:09.394Z,11.7
2018-05-01T15:09:04.415Z,10.77
2018-05-01T15:14:59.340Z,12.28
2018-05-01T15:20:54.336Z,13.3
2018-05-01T15:26:49.369Z,15.14
2018-05-01T15:32:44.332Z,12.69
2018-05-01T15:38:39.350Z,9.34
2018-05-01T15:44:34.362Z,17.65
2018-05-01T15:50:29.358Z,15.37
2018-05-01T15:56:24.371Z,20.92
2018-05-01T16:02:19.359Z,13.77
2018-05-01T16:08:14.347Z,18.6
2018-05-01T16:14:09.431Z,10.39
2018-05-01T16:20:04.431Z,12.29
2018-05-01T16:25:59.358Z,14.67
2018-05-01T16:31:54.425Z,22.07
2018-05-01T16:37:49.374Z,7.62
2018-05-01T16:43:44.362Z,10.17
2018-05-01T16:49:39.386Z,12.58
2018-05-01T16:55:34.400Z,20.3
2018-05-01T17:01:29.402Z,22.3
2018-05-01T17:07:24.401Z,10.7
2018-05-01T17:13:19.421Z,13.18
2018-05-01T17:19:14.431Z,21.66
2018-05-01T17:25:09.424Z,17.29
2018-05-01T17:31:04.387Z,12.23
2018-05-01T17:36:59.416Z,13.31
2018-05-01T17:42:54.455Z,15.53
2018-05-01T17:48:49.533Z,18.91
2018-05-01T17:54:44.424Z,12.58
2018-05-01T18:00:39.412Z,13.72
2018-05-01T18:06:34.485Z,9.5
2018-05-01T18:12:29.479Z,11.56
2018-05-01T18:18:24.492Z,14.99
2018-05-01T18:24:19.450Z,11.94
2018-05-01T18:30:14.436Z,11.52
2018-05-01T18:36:09.544Z,9.6
2018-05-01T18:42:04.420Z,9.14
2018-05-01T18:47:59.444Z,17.56
2018-05-01T18:53:54.489Z,13.98
2018-05-01T18:59:49.445Z,12.07
2018-05-01T19:05:44.472Z,8.97
2018-05-01T19:11:39.524Z,14.26
2018-05-01T19:17:34.518Z,11.41
2018-05-01T19:23:29.490Z,9.07
2018-05-01T19:29:24.467Z,12.44
2018-05-01T19:35:19.469Z,7.7
2018-05-01T19:41:14.474Z,7.33
2018-05-01T19:47:09.474Z,10.02
2018-05-01T19:53:04.488Z,9.89
2018-05-01T19:58:59.473Z,12.6
2018-05-01T20:04:54.493Z,11.9
2018-05-01T20:10:49.498Z,9.95
2018-05-01T20:16:44.544Z,23.64
2018-05-01T20:22:39.492Z,10.28
2018-05-01T20:28:34.532Z,13.07
2018-05-01T20:34:29.486Z,15.48
2018-05-01T20:40:24.517Z,9.74
2018-05-01T20:46:19.522Z,12.1
2018-05-01T20:52:14.520Z,10.04
2018-05-01T20:58:09.522Z,10.26
2018-05-01T21:04:04.542Z,15.35
2018-05-01T21:09:59.523Z,11.43
2018-05-01T21:15:54.525Z,14.95
2018-05-01T21:21:49.544Z,10.06
2018-05-01T21:27:44.515Z,10.66
2018-05-01T21:33:39.520Z,14.69
2018-05-01T21:39:34.552Z,12.16
2018-05-01T21:45:29.550Z,18.29
2018-05-01T21:51:24.669Z,11.58
2018-05-01T21:57:19.642Z,12.24
2018-05-01T22:03:14.561Z,12.77
2018-05-01T22:09:09.582Z,12.65
2018-05-01T22:15:04.562Z,12.77
2018-05-01T22:20:59.624Z,16.13
2018-05-01T22:26:54.571Z,13.51
2018-05-01T22:32:49.582Z,14.07
2018-05-01T22:38:44.558Z,16.99
2018-05-01T22:44:39.606Z,15.93
2018-05-01T22:50:34.615Z,14.57
2018-05-01T22:56:29.589Z,16.26
2018-05-01T23:02:24.565Z,17.83
2018-05-01T23:08:19.595Z,12.03
2018-05-01T23:14:14.604Z,17.32
2018-05-01T23:20:09.589Z,12.3
2018-05-01T23:26:04.576Z,16.7
2018-05-01T23:31:59.580Z,16.56
2018-05-01T23:37:54.599Z,15.04
2018-05-01T23:43:49.611Z,16.41
2018-05-01T23:49:44.617Z,14.91
2018-05-01T23:55:39.589Z,16.57
